sensor_id;sensor_type;location;lat;lon;timestamp;P1;durP1;ratioP1;P2;durP2;ratioP2
61590;SDS011;57639;52.410;-1.966;2022-07-06T00:00:51;4.35;;;2.55;;
61590;SDS011;57639;52.410;-1.966;2022-07-06T00:03:58;4.75;;;2.22;;
61590;SDS011;57639;52.410;-1.966;2022-07-06T00:07:10;4.75;;;2.45;;
61590;SDS011;57639;52.410;-1.966;2022-07-06T00:10:18;3.83;;;2.45;;
61590;SDS011;57639;52.410;-1.966;2022-07-06T00:13:26;5.78;;;2.20;;
61590;SDS011;57639;52.410;-1.966;2022-07-06T00:16:33;3.95;;;2.13;;
61590;SDS011;57639;52.410;-1.966;2022-07-06T00:19:41;4.45;;;2.25;;
61590;SDS011;57639;52.410;-1.966;2022-07-06T00:22:51;3.92;;;2.15;;
61590;SDS011;57639;52.410;-1.966;2022-07-06T00:25:59;4.28;;;2.05;;
61590;SDS011;57639;52.410;-1.966;2022-07-06T00:29:06;5.10;;;2.35;;
61590;SDS011;57639;52.410;-1.966;2022-07-06T00:32:14;4.93;;;2.13;;
61590;SDS011;57639;52.410;-1.966;2022-07-06T00:35:21;4.60;;;2.55;;
61590;SDS011;57639;52.410;-1.966;2022-07-06T00:38:32;4.60;;;2.10;;
61590;SDS011;57639;52.410;-1.966;2022-07-06T00:41:41;3.83;;;1.98;;
61590;SDS011;57639;52.410;-1.966;2022-07-06T00:44:49;4.90;;;2.25;;
61590;SDS011;57639;52.410;-1.966;2022-07-06T00:47:56;4.10;;;1.90;;
61590;SDS011;57639;52.410;-1.966;2022-07-06T00:51:04;3.72;;;2.13;;
61590;SDS011;57639;52.410;-1.966;2022-07-06T00:54:15;4.75;;;2.10;;
61590;SDS011;57639;52.410;-1.966;2022-07-06T00:57:23;3.30;;;1.80;;
61590;SDS011;57639;52.410;-1.966;2022-07-06T01:00:31;4.10;;;1.90;;
61590;SDS011;57639;52.410;-1.966;2022-07-06T01:03:39;3.77;;;1.90;;
61590;SDS011;57639;52.410;-1.966;2022-07-06T01:06:49;4.60;;;2.00;;
61590;SDS011;57639;52.410;-1.966;2022-07-06T01:09:59;4.20;;;1.85;;
61590;SDS011;57639;52.410;-1.966;2022-07-06T01:13:08;3.88;;;1.92;;
61590;SDS011;57639;52.410;-1.966;2022-07-06T01:16:16;3.33;;;1.95;;
61590;SDS011;57639;52.410;-1.966;2022-07-06T01:19:24;2.63;;;1.70;;
61590;SDS011;57639;52.410;-1.966;2022-07-06T01:22:35;3.50;;;1.65;;
61590;SDS011;57639;52.410;-1.966;2022-07-06T01:25:42;3.42;;;1.80;;
61590;SDS011;57639;52.410;-1.966;2022-07-06T01:28:51;4.97;;;1.73;;
61590;SDS011;57639;52.410;-1.966;2022-07-06T01:31:58;3.80;;;1.67;;
61590;SDS011;57639;52.410;-1.966;2022-07-06T01:35:08;3.22;;;1.75;;
61590;SDS011;57639;52.410;-1.966;2022-07-06T01:38:19;3.55;;;1.63;;
61590;SDS011;57639;52.410;-1.966;2022-07-06T01:41:27;3.00;;;1.60;;
61590;SDS011;57639;52.410;-1.966;2022-07-06T01:44:35;2.65;;;1.63;;
61590;SDS011;57639;52.410;-1.966;2022-07-06T01:47:42;3.33;;;1.50;;
61590;SDS011;57639;52.410;-1.966;2022-07-06T01:50:50;2.88;;;1.58;;
61590;SDS011;57639;52.410;-1.966;2022-07-06T01:54:00;2.70;;;1.40;;
61590;SDS011;57639;52.410;-1.966;2022-07-06T01:57:08;3.17;;;1.58;;
61590;SDS011;57639;52.410;-1.966;2022-07-06T02:00:15;3.75;;;1.40;;
61590;SDS011;57639;52.410;-1.966;2022-07-06T02:03:23;3.35;;;1.50;;
61590;SDS011;57639;52.410;-1.966;2022-07-06T02:06:32;2.42;;;1.23;;
61590;SDS011;57639;52.410;-1.966;2022-07-06T02:09:42;2.20;;;1.42;;
61590;SDS011;57639;52.410;-1.966;2022-07-06T02:12:50;2.75;;;1.30;;
61590;SDS011;57639;52.410;-1.966;2022-07-06T02:15:57;2.90;;;1.50;;
61590;SDS011;57639;52.410;-1.966;2022-07-06T02:19:05;2.42;;;1.20;;
61590;SDS011;57639;52.410;-1.966;2022-07-06T02:22:12;3.58;;;1.40;;
61590;SDS011;57639;52.410;-1.966;2022-07-06T02:25:25;2.55;;;1.10;;
61590;SDS011;57639;52.410;-1.966;2022-07-06T02:28:33;2.00;;;1.10;;
61590;SDS011;57639;52.410;-1.966;2022-07-06T02:31:40;2.50;;;1.40;;
61590;SDS011;57639;52.410;-1.966;2022-07-06T02:34:48;2.28;;;1.23;;
61590;SDS011;57639;52.410;-1.966;2022-07-06T02:37:56;3.00;;;1.13;;
61590;SDS011;57639;52.410;-1.966;2022-07-06T02:41:07;3.25;;;1.00;;
61590;SDS011;57639;52.410;-1.966;2022-07-06T02:44:16;2.55;;;1.27;;
61590;SDS011;57639;52.410;-1.966;2022-07-06T02:47:24;2.83;;;1.60;;
61590;SDS011;57639;52.410;-1.966;2022-07-06T02:50:32;2.00;;;1.20;;
61590;SDS011;57639;52.410;-1.966;2022-07-06T02:53:39;1.90;;;1.10;;
61590;SDS011;57639;52.410;-1.966;2022-07-06T02:56:50;2.05;;;1.17;;
61590;SDS011;57639;52.410;-1.966;2022-07-06T02:59:57;1.90;;;1.10;;
61590;SDS011;57639;52.410;-1.966;2022-07-06T03:03:04;1.88;;;1.17;;
61590;SDS011;57639;52.410;-1.966;2022-07-06T03:06:13;2.30;;;1.10;;
61590;SDS011;57639;52.410;-1.966;2022-07-06T03:09:20;2.55;;;1.30;;
61590;SDS011;57639;52.410;-1.966;2022-07-06T03:12:31;2.40;;;1.25;;
61590;SDS011;57639;52.410;-1.966;2022-07-06T03:15:41;2.38;;;1.30;;
61590;SDS011;57639;52.410;-1.966;2022-07-06T03:18:48;2.17;;;1.20;;
61590;SDS011;57639;52.410;-1.966;2022-07-06T03:21:56;1.67;;;1.08;;
61590;SDS011;57639;52.410;-1.966;2022-07-06T03:25:04;2.00;;;1.00;;
61590;SDS011;57639;52.410;-1.966;2022-07-06T03:28:14;1.60;;;1.02;;
61590;SDS011;57639;52.410;-1.966;2022-07-06T03:31:22;1.95;;;1.02;;
61590;SDS011;57639;52.410;-1.966;2022-07-06T03:34:29;2.28;;;1.20;;
61590;SDS011;57639;52.410;-1.966;2022-07-06T03:37:37;1.75;;;1.00;;
61590;SDS011;57639;52.410;-1.966;2022-07-06T03:40:44;2.30;;;1.10;;
61590;SDS011;57639;52.410;-1.966;2022-07-06T03:43:55;3.70;;;0.98;;
61590;SDS011;57639;52.410;-1.966;2022-07-06T03:47:02;2.78;;;1.00;;
61590;SDS011;57639;52.410;-1.966;2022-07-06T03:50:10;4.00;;;1.33;;
61590;SDS011;57639;52.410;-1.966;2022-07-06T03:53:18;1.70;;;0.82;;
61590;SDS011;57639;52.410;-1.966;2022-07-06T03:56:26;2.55;;;1.08;;
61590;SDS011;57639;52.410;-1.966;2022-07-06T03:59:39;2.20;;;0.93;;
61590;SDS011;57639;52.410;-1.966;2022-07-06T04:02:47;1.75;;;0.93;;
61590;SDS011;57639;52.410;-1.966;2022-07-06T04:05:54;2.00;;;1.40;;
61590;SDS011;57639;52.410;-1.966;2022-07-06T04:09:02;1.48;;;0.90;;
61590;SDS011;57639;52.410;-1.966;2022-07-06T04:12:09;1.98;;;1.10;;
61590;SDS011;57639;52.410;-1.966;2022-07-06T04:18:29;2.15;;;0.93;;
61590;SDS011;57639;52.410;-1.966;2022-07-06T04:21:37;2.33;;;1.10;;
61590;SDS011;57639;52.410;-1.966;2022-07-06T04:24:44;2.08;;;0.90;;
61590;SDS011;57639;52.410;-1.966;2022-07-06T04:27:52;1.83;;;1.00;;
61590;SDS011;57639;52.410;-1.966;2022-07-06T04:31:02;1.83;;;0.90;;
61590;SDS011;57639;52.410;-1.966;2022-07-06T04:34:09;1.75;;;1.00;;
61590;SDS011;57639;52.410;-1.966;2022-07-06T04:37:17;1.63;;;0.88;;
61590;SDS011;57639;52.410;-1.966;2022-07-06T04:40:24;1.02;;;0.70;;
61590;SDS011;57639;52.410;-1.966;2022-07-06T04:43:32;1.92;;;0.90;;
61590;SDS011;57639;52.410;-1.966;2022-07-06T04:46:42;1.60;;;0.85;;
61590;SDS011;57639;52.410;-1.966;2022-07-06T04:49:49;2.45;;;1.00;;
61590;SDS011;57639;52.410;-1.966;2022-07-06T04:52:57;1.77;;;1.00;;
61590;SDS011;57639;52.410;-1.966;2022-07-06T04:56:05;1.70;;;0.93;;
61590;SDS011;57639;52.410;-1.966;2022-07-06T04:59:12;1.10;;;0.90;;
61590;SDS011;57639;52.410;-1.966;2022-07-06T05:02:23;1.23;;;0.80;;
61590;SDS011;57639;52.410;-1.966;2022-07-06T05:05:31;1.48;;;0.90;;
61590;SDS011;57639;52.410;-1.966;2022-07-06T05:08:39;1.15;;;0.82;;
61590;SDS011;57639;52.410;-1.966;2022-07-06T05:11:46;1.33;;;0.80;;
61590;SDS011;57639;52.410;-1.966;2022-07-06T05:14:54;1.77;;;0.98;;
61590;SDS011;57639;52.410;-1.966;2022-07-06T05:18:04;2.58;;;0.80;;
61590;SDS011;57639;52.410;-1.966;2022-07-06T05:21:11;1.48;;;0.85;;
61590;SDS011;57639;52.410;-1.966;2022-07-06T05:24:19;1.27;;;0.77;;
61590;SDS011;57639;52.410;-1.966;2022-07-06T05:27:27;1.60;;;0.90;;
61590;SDS011;57639;52.410;-1.966;2022-07-06T05:30:34;1.23;;;0.80;;
61590;SDS011;57639;52.410;-1.966;2022-07-06T05:33:44;2.17;;;0.80;;
61590;SDS011;57639;52.410;-1.966;2022-07-06T05:36:52;1.38;;;0.80;;
61590;SDS011;57639;52.410;-1.966;2022-07-06T05:40:00;2.00;;;0.90;;
61590;SDS011;57639;52.410;-1.966;2022-07-06T05:43:08;1.88;;;0.90;;
61590;SDS011;57639;52.410;-1.966;2022-07-06T05:46:15;2.00;;;0.90;;
61590;SDS011;57639;52.410;-1.966;2022-07-06T05:49:26;1.65;;;0.80;;
61590;SDS011;57639;52.410;-1.966;2022-07-06T05:52:55;1.35;;;0.80;;
61590;SDS011;57639;52.410;-1.966;2022-07-06T05:56:14;1.02;;;0.80;;
61590;SDS011;57639;52.410;-1.966;2022-07-06T05:59:21;1.08;;;0.80;;
61590;SDS011;57639;52.410;-1.966;2022-07-06T06:02:35;1.10;;;0.73;;
61590;SDS011;57639;52.410;-1.966;2022-07-06T06:05:47;1.02;;;0.80;;
61590;SDS011;57639;52.410;-1.966;2022-07-06T06:08:58;1.45;;;0.82;;
61590;SDS011;57639;52.410;-1.966;2022-07-06T06:12:05;1.48;;;0.80;;
61590;SDS011;57639;52.410;-1.966;2022-07-06T06:15:20;2.95;;;0.57;;
61590;SDS011;57639;52.410;-1.966;2022-07-06T06:18:27;3.88;;;0.90;;
61590;SDS011;57639;52.410;-1.966;2022-07-06T06:21:46;3.17;;;0.88;;
61590;SDS011;57639;52.410;-1.966;2022-07-06T06:24:55;1.63;;;0.73;;
61590;SDS011;57639;52.410;-1.966;2022-07-06T06:28:09;1.55;;;0.88;;
61590;SDS011;57639;52.410;-1.966;2022-07-06T06:31:20;1.08;;;0.70;;
61590;SDS011;57639;52.410;-1.966;2022-07-06T06:34:28;1.23;;;0.77;;
61590;SDS011;57639;52.410;-1.966;2022-07-06T06:37:38;2.33;;;0.73;;
61590;SDS011;57639;52.410;-1.966;2022-07-06T06:40:46;1.45;;;0.75;;
61590;SDS011;57639;52.410;-1.966;2022-07-06T06:43:55;1.48;;;0.93;;
61590;SDS011;57639;52.410;-1.966;2022-07-06T06:47:03;1.35;;;0.90;;
61590;SDS011;57639;52.410;-1.966;2022-07-06T06:50:11;2.53;;;0.68;;
61590;SDS011;57639;52.410;-1.966;2022-07-06T06:53:21;1.30;;;0.80;;
61590;SDS011;57639;52.410;-1.966;2022-07-06T06:56:27;2.15;;;0.70;;
61590;SDS011;57639;52.410;-1.966;2022-07-06T07:02:47;2.28;;;0.73;;
61590;SDS011;57639;52.410;-1.966;2022-07-06T07:05:55;1.27;;;0.70;;
61590;SDS011;57639;52.410;-1.966;2022-07-06T07:09:05;1.88;;;0.80;;
61590;SDS011;57639;52.410;-1.966;2022-07-06T07:12:13;3.15;;;0.80;;
61590;SDS011;57639;52.410;-1.966;2022-07-06T07:15:20;1.23;;;0.60;;
61590;SDS011;57639;52.410;-1.966;2022-07-06T07:18:28;1.52;;;0.75;;
61590;SDS011;57639;52.410;-1.966;2022-07-06T07:21:36;1.42;;;0.73;;
61590;SDS011;57639;52.410;-1.966;2022-07-06T07:24:47;1.48;;;0.70;;
61590;SDS011;57639;52.410;-1.966;2022-07-06T07:27:54;1.10;;;0.80;;
61590;SDS011;57639;52.410;-1.966;2022-07-06T07:31:02;1.38;;;0.70;;
61590;SDS011;57639;52.410;-1.966;2022-07-06T07:34:11;0.77;;;0.60;;
61590;SDS011;57639;52.410;-1.966;2022-07-06T07:37:19;3.50;;;0.80;;
61590;SDS011;57639;52.410;-1.966;2022-07-06T07:40:29;1.60;;;0.70;;
61590;SDS011;57639;52.410;-1.966;2022-07-06T07:43:37;1.20;;;0.80;;
61590;SDS011;57639;52.410;-1.966;2022-07-06T07:46:44;0.95;;;0.65;;
61590;SDS011;57639;52.410;-1.966;2022-07-06T07:49:52;1.13;;;0.70;;
61590;SDS011;57639;52.410;-1.966;2022-07-06T07:53:00;0.93;;;0.68;;
61590;SDS011;57639;52.410;-1.966;2022-07-06T07:56:10;0.93;;;0.57;;
61590;SDS011;57639;52.410;-1.966;2022-07-06T07:59:18;1.63;;;0.70;;
61590;SDS011;57639;52.410;-1.966;2022-07-06T08:02:26;0.77;;;0.52;;
61590;SDS011;57639;52.410;-1.966;2022-07-06T08:05:33;1.20;;;0.90;;
61590;SDS011;57639;52.410;-1.966;2022-07-06T08:08:41;2.15;;;0.85;;
61590;SDS011;57639;52.410;-1.966;2022-07-06T08:11:51;0.90;;;0.70;;
61590;SDS011;57639;52.410;-1.966;2022-07-06T08:14:58;1.70;;;0.70;;
61590;SDS011;57639;52.410;-1.966;2022-07-06T08:18:06;1.02;;;0.50;;
61590;SDS011;57639;52.410;-1.966;2022-07-06T08:21:13;2.75;;;0.77;;
61590;SDS011;57639;52.410;-1.966;2022-07-06T08:24:28;0.95;;;0.60;;
61590;SDS011;57639;52.410;-1.966;2022-07-06T08:27:38;1.15;;;0.80;;
61590;SDS011;57639;52.410;-1.966;2022-07-06T08:30:47;1.30;;;0.60;;
61590;SDS011;57639;52.410;-1.966;2022-07-06T08:33:55;1.00;;;0.57;;
61590;SDS011;57639;52.410;-1.966;2022-07-06T08:37:03;0.80;;;0.60;;
61590;SDS011;57639;52.410;-1.966;2022-07-06T08:40:11;0.75;;;0.50;;
61590;SDS011;57639;52.410;-1.966;2022-07-06T08:43:21;1.80;;;0.70;;
61590;SDS011;57639;52.410;-1.966;2022-07-06T08:46:30;1.40;;;0.60;;
61590;SDS011;57639;52.410;-1.966;2022-07-06T08:49:38;2.00;;;0.60;;
61590;SDS011;57639;52.410;-1.966;2022-07-06T08:52:46;1.45;;;0.77;;
61590;SDS011;57639;52.410;-1.966;2022-07-06T08:55:55;1.90;;;0.60;;
61590;SDS011;57639;52.410;-1.966;2022-07-06T08:59:05;1.42;;;0.70;;
61590;SDS011;57639;52.410;-1.966;2022-07-06T09:02:14;0.75;;;0.60;;
61590;SDS011;57639;52.410;-1.966;2022-07-06T09:05:23;1.52;;;0.60;;
61590;SDS011;57639;52.410;-1.966;2022-07-06T09:08:30;1.27;;;0.75;;
61590;SDS011;57639;52.410;-1.966;2022-07-06T09:11:40;0.55;;;0.50;;
61590;SDS011;57639;52.410;-1.966;2022-07-06T09:14:50;1.05;;;0.60;;
61590;SDS011;57639;52.410;-1.966;2022-07-06T09:17:58;1.05;;;0.60;;
61590;SDS011;57639;52.410;-1.966;2022-07-06T09:21:05;1.38;;;0.88;;
61590;SDS011;57639;52.410;-1.966;2022-07-06T09:24:13;1.08;;;0.60;;
61590;SDS011;57639;52.410;-1.966;2022-07-06T09:27:21;1.75;;;0.52;;
61590;SDS011;57639;52.410;-1.966;2022-07-06T09:30:31;2.45;;;0.77;;
61590;SDS011;57639;52.410;-1.966;2022-07-06T09:33:53;1.55;;;0.65;;
61590;SDS011;57639;52.410;-1.966;2022-07-06T09:37:03;2.05;;;0.80;;
61590;SDS011;57639;52.410;-1.966;2022-07-06T09:40:15;2.30;;;0.50;;
61590;SDS011;57639;52.410;-1.966;2022-07-06T09:43:24;0.77;;;0.50;;
61590;SDS011;57639;52.410;-1.966;2022-07-06T09:46:39;1.45;;;0.73;;
61590;SDS011;57639;52.410;-1.966;2022-07-06T09:49:47;0.80;;;0.63;;
61590;SDS011;57639;52.410;-1.966;2022-07-06T09:52:55;1.30;;;0.60;;
61590;SDS011;57639;52.410;-1.966;2022-07-06T09:56:02;4.10;;;0.85;;
61590;SDS011;57639;52.410;-1.966;2022-07-06T09:59:11;2.78;;;0.60;;
61590;SDS011;57639;52.410;-1.966;2022-07-06T10:02:22;1.07;;;0.60;;
61590;SDS011;57639;52.410;-1.966;2022-07-06T10:05:32;1.35;;;0.50;;
61590;SDS011;57639;52.410;-1.966;2022-07-06T10:08:39;1.50;;;0.60;;
61590;SDS011;57639;52.410;-1.966;2022-07-06T10:11:51;2.00;;;0.70;;
61590;SDS011;57639;52.410;-1.966;2022-07-06T10:14:59;2.00;;;0.70;;
61590;SDS011;57639;52.410;-1.966;2022-07-06T10:18:09;1.08;;;0.50;;
61590;SDS011;57639;52.410;-1.966;2022-07-06T10:21:17;1.77;;;0.45;;
61590;SDS011;57639;52.410;-1.966;2022-07-06T10:24:25;1.05;;;0.50;;
61590;SDS011;57639;52.410;-1.966;2022-07-06T10:27:38;1.20;;;0.52;;
61590;SDS011;57639;52.410;-1.966;2022-07-06T10:30:47;1.15;;;0.60;;
61590;SDS011;57639;52.410;-1.966;2022-07-06T10:34:00;0.93;;;0.57;;
61590;SDS011;57639;52.410;-1.966;2022-07-06T10:37:13;1.23;;;0.57;;
61590;SDS011;57639;52.410;-1.966;2022-07-06T10:40:33;0.90;;;0.60;;
61590;SDS011;57639;52.410;-1.966;2022-07-06T10:43:57;1.42;;;0.50;;
61590;SDS011;57639;52.410;-1.966;2022-07-06T10:47:25;0.98;;;0.60;;
61590;SDS011;57639;52.410;-1.966;2022-07-06T10:50:37;1.83;;;0.60;;
61590;SDS011;57639;52.410;-1.966;2022-07-06T10:53:45;0.75;;;0.50;;
61590;SDS011;57639;52.410;-1.966;2022-07-06T10:57:01;0.65;;;0.50;;
61590;SDS011;57639;52.410;-1.966;2022-07-06T11:00:19;0.50;;;0.40;;
61590;SDS011;57639;52.410;-1.966;2022-07-06T11:03:29;0.88;;;0.40;;
61590;SDS011;57639;52.410;-1.966;2022-07-06T11:06:41;1.33;;;0.57;;
61590;SDS011;57639;52.410;-1.966;2022-07-06T11:09:53;0.60;;;0.50;;
61590;SDS011;57639;52.410;-1.966;2022-07-06T11:13:02;1.00;;;0.60;;
61590;SDS011;57639;52.410;-1.966;2022-07-06T11:16:09;1.70;;;0.60;;
61590;SDS011;57639;52.410;-1.966;2022-07-06T11:19:17;2.70;;;0.55;;
61590;SDS011;57639;52.410;-1.966;2022-07-06T11:22:30;0.80;;;0.63;;
61590;SDS011;57639;52.410;-1.966;2022-07-06T11:25:37;0.50;;;0.47;;
61590;SDS011;57639;52.410;-1.966;2022-07-06T11:28:45;1.27;;;0.63;;
61590;SDS011;57639;52.410;-1.966;2022-07-06T11:31:57;1.55;;;0.50;;
61590;SDS011;57639;52.410;-1.966;2022-07-06T11:35:07;1.02;;;0.50;;
61590;SDS011;57639;52.410;-1.966;2022-07-06T11:38:27;2.10;;;0.65;;
61590;SDS011;57639;52.410;-1.966;2022-07-06T11:41:35;1.30;;;0.70;;
61590;SDS011;57639;52.410;-1.966;2022-07-06T11:44:49;1.00;;;0.50;;
61590;SDS011;57639;52.410;-1.966;2022-07-06T11:48:09;1.45;;;0.40;;
61590;SDS011;57639;52.410;-1.966;2022-07-06T11:51:17;1.02;;;0.47;;
61590;SDS011;57639;52.410;-1.966;2022-07-06T11:54:27;0.50;;;0.40;;
61590;SDS011;57639;52.410;-1.966;2022-07-06T11:57:35;1.23;;;0.40;;
61590;SDS011;57639;52.410;-1.966;2022-07-06T12:00:43;3.10;;;0.60;;
61590;SDS011;57639;52.410;-1.966;2022-07-06T12:03:51;1.05;;;0.55;;
61590;SDS011;57639;52.410;-1.966;2022-07-06T12:07:00;1.75;;;0.50;;
61590;SDS011;57639;52.410;-1.966;2022-07-06T12:10:11;0.68;;;0.40;;
61590;SDS011;57639;52.410;-1.966;2022-07-06T12:13:18;0.57;;;0.47;;
61590;SDS011;57639;52.410;-1.966;2022-07-06T12:16:30;1.48;;;0.60;;
61590;SDS011;57639;52.410;-1.966;2022-07-06T12:19:38;1.65;;;0.50;;
61590;SDS011;57639;52.410;-1.966;2022-07-06T12:22:47;0.40;;;0.30;;
61590;SDS011;57639;52.410;-1.966;2022-07-06T12:25:58;0.50;;;0.30;;
61590;SDS011;57639;52.410;-1.966;2022-07-06T12:29:08;0.60;;;0.35;;
61590;SDS011;57639;52.410;-1.966;2022-07-06T12:32:18;0.95;;;0.40;;
61590;SDS011;57639;52.410;-1.966;2022-07-06T12:35:26;1.17;;;0.50;;
61590;SDS011;57639;52.410;-1.966;2022-07-06T12:38:35;0.77;;;0.32;;
61590;SDS011;57639;52.410;-1.966;2022-07-06T12:41:48;0.80;;;0.32;;
61590;SDS011;57639;52.410;-1.966;2022-07-06T12:44:57;0.60;;;0.40;;
61590;SDS011;57639;52.410;-1.966;2022-07-06T12:48:05;0.30;;;0.30;;
61590;SDS011;57639;52.410;-1.966;2022-07-06T12:51:13;0.35;;;0.30;;
61590;SDS011;57639;52.410;-1.966;2022-07-06T12:54:21;0.38;;;0.30;;
61590;SDS011;57639;52.410;-1.966;2022-07-06T12:57:41;0.32;;;0.30;;
61590;SDS011;57639;52.410;-1.966;2022-07-06T13:00:50;1.98;;;0.50;;
61590;SDS011;57639;52.410;-1.966;2022-07-06T13:03:58;1.27;;;0.30;;
61590;SDS011;57639;52.410;-1.966;2022-07-06T13:07:05;1.85;;;0.32;;
61590;SDS011;57639;52.410;-1.966;2022-07-06T13:10:13;0.50;;;0.40;;
61590;SDS011;57639;52.410;-1.966;2022-07-06T13:13:25;1.17;;;0.30;;
61590;SDS011;57639;52.410;-1.966;2022-07-06T13:16:32;0.30;;;0.30;;
61590;SDS011;57639;52.410;-1.966;2022-07-06T13:19:41;0.80;;;0.30;;
61590;SDS011;57639;52.410;-1.966;2022-07-06T13:22:48;1.58;;;0.40;;
61590;SDS011;57639;52.410;-1.966;2022-07-06T13:25:56;0.50;;;0.30;;
61590;SDS011;57639;52.410;-1.966;2022-07-06T13:29:06;0.30;;;0.30;;
61590;SDS011;57639;52.410;-1.966;2022-07-06T13:32:14;0.38;;;0.32;;
61590;SDS011;57639;52.410;-1.966;2022-07-06T13:35:22;0.98;;;0.40;;
61590;SDS011;57639;52.410;-1.966;2022-07-06T13:38:30;0.90;;;0.30;;
61590;SDS011;57639;52.410;-1.966;2022-07-06T13:41:37;0.43;;;0.40;;
61590;SDS011;57639;52.410;-1.966;2022-07-06T13:44:48;0.30;;;0.30;;
61590;SDS011;57639;52.410;-1.966;2022-07-06T13:47:55;0.50;;;0.40;;
61590;SDS011;57639;52.410;-1.966;2022-07-06T13:51:03;0.80;;;0.35;;
61590;SDS011;57639;52.410;-1.966;2022-07-06T13:54:11;1.02;;;0.47;;
61590;SDS011;57639;52.410;-1.966;2022-07-06T13:57:19;0.30;;;0.28;;
61590;SDS011;57639;52.410;-1.966;2022-07-06T14:00:29;0.40;;;0.40;;
61590;SDS011;57639;52.410;-1.966;2022-07-06T14:03:37;1.17;;;0.50;;
61590;SDS011;57639;52.410;-1.966;2022-07-06T14:06:45;1.05;;;0.30;;
61590;SDS011;57639;52.410;-1.966;2022-07-06T14:09:52;0.75;;;0.40;;
61590;SDS011;57639;52.410;-1.966;2022-07-06T14:13:00;0.63;;;0.32;;
61590;SDS011;57639;52.410;-1.966;2022-07-06T14:16:10;0.90;;;0.40;;
61590;SDS011;57639;52.410;-1.966;2022-07-06T14:19:18;0.45;;;0.40;;
61590;SDS011;57639;52.410;-1.966;2022-07-06T14:22:25;2.28;;;0.70;;
61590;SDS011;57639;52.410;-1.966;2022-07-06T14:25:33;1.08;;;0.50;;
61590;SDS011;57639;52.410;-1.966;2022-07-06T14:28:41;1.50;;;0.40;;
61590;SDS011;57639;52.410;-1.966;2022-07-06T14:31:51;0.30;;;0.30;;
61590;SDS011;57639;52.410;-1.966;2022-07-06T14:34:59;0.68;;;0.40;;
61590;SDS011;57639;52.410;-1.966;2022-07-06T14:38:06;1.33;;;0.50;;
61590;SDS011;57639;52.410;-1.966;2022-07-06T14:41:14;0.90;;;0.45;;
61590;SDS011;57639;52.410;-1.966;2022-07-06T14:44:22;0.60;;;0.38;;
61590;SDS011;57639;52.410;-1.966;2022-07-06T14:47:34;0.50;;;0.40;;
61590;SDS011;57639;52.410;-1.966;2022-07-06T14:50:42;0.55;;;0.40;;
61590;SDS011;57639;52.410;-1.966;2022-07-06T14:53:50;0.63;;;0.45;;
61590;SDS011;57639;52.410;-1.966;2022-07-06T14:56:58;0.90;;;0.40;;
61590;SDS011;57639;52.410;-1.966;2022-07-06T15:00:08;2.63;;;0.43;;
61590;SDS011;57639;52.410;-1.966;2022-07-06T15:03:22;2.15;;;0.40;;
61590;SDS011;57639;52.410;-1.966;2022-07-06T15:06:30;1.60;;;0.60;;
61590;SDS011;57639;52.410;-1.966;2022-07-06T15:09:57;0.60;;;0.40;;
61590;SDS011;57639;52.410;-1.966;2022-07-06T15:13:04;0.30;;;0.30;;
61590;SDS011;57639;52.410;-1.966;2022-07-06T15:16:10;0.50;;;0.38;;
61590;SDS011;57639;52.410;-1.966;2022-07-06T15:19:23;2.60;;;0.57;;
61590;SDS011;57639;52.410;-1.966;2022-07-06T15:22:29;3.85;;;0.50;;
61590;SDS011;57639;52.410;-1.966;2022-07-06T15:25:37;2.25;;;0.40;;
61590;SDS011;57639;52.410;-1.966;2022-07-06T15:28:42;1.92;;;0.40;;
61590;SDS011;57639;52.410;-1.966;2022-07-06T15:31:50;0.90;;;0.30;;
61590;SDS011;57639;52.410;-1.966;2022-07-06T15:34:58;3.55;;;0.40;;
61590;SDS011;57639;52.410;-1.966;2022-07-06T15:38:08;0.93;;;0.30;;
61590;SDS011;57639;52.410;-1.966;2022-07-06T15:41:14;1.38;;;0.50;;
61590;SDS011;57639;52.410;-1.966;2022-07-06T15:44:21;1.50;;;0.50;;
61590;SDS011;57639;52.410;-1.966;2022-07-06T15:47:27;1.98;;;0.47;;
61590;SDS011;57639;52.410;-1.966;2022-07-06T15:50:37;1.23;;;0.40;;
61590;SDS011;57639;52.410;-1.966;2022-07-06T15:53:43;6.22;;;0.82;;
61590;SDS011;57639;52.410;-1.966;2022-07-06T15:56:52;2.90;;;0.57;;
61590;SDS011;57639;52.410;-1.966;2022-07-06T15:59:57;1.52;;;0.50;;
61590;SDS011;57639;52.410;-1.966;2022-07-06T16:03:05;0.85;;;0.40;;
61590;SDS011;57639;52.410;-1.966;2022-07-06T16:06:13;3.17;;;0.50;;
61590;SDS011;57639;52.410;-1.966;2022-07-06T16:09:21;0.90;;;0.38;;
61590;SDS011;57639;52.410;-1.966;2022-07-06T16:12:27;3.53;;;0.60;;
61590;SDS011;57639;52.410;-1.966;2022-07-06T16:15:35;1.67;;;0.40;;
61590;SDS011;57639;52.410;-1.966;2022-07-06T16:18:40;2.22;;;0.40;;
61590;SDS011;57639;52.410;-1.966;2022-07-06T16:21:50;1.13;;;0.43;;
61590;SDS011;57639;52.410;-1.966;2022-07-06T16:24:56;2.53;;;0.50;;
61590;SDS011;57639;52.410;-1.966;2022-07-06T16:28:09;2.60;;;0.38;;
61590;SDS011;57639;52.410;-1.966;2022-07-06T16:31:15;2.80;;;0.50;;
61590;SDS011;57639;52.410;-1.966;2022-07-06T16:34:26;3.63;;;0.50;;
61590;SDS011;57639;52.410;-1.966;2022-07-06T16:37:34;2.83;;;0.45;;
61590;SDS011;57639;52.410;-1.966;2022-07-06T16:40:42;2.15;;;0.50;;
61590;SDS011;57639;52.410;-1.966;2022-07-06T16:43:48;0.88;;;0.38;;
61590;SDS011;57639;52.410;-1.966;2022-07-06T16:46:55;2.03;;;0.50;;
61590;SDS011;57639;52.410;-1.966;2022-07-06T16:50:01;4.53;;;0.52;;
61590;SDS011;57639;52.410;-1.966;2022-07-06T16:53:12;2.50;;;0.52;;
61590;SDS011;57639;52.410;-1.966;2022-07-06T16:56:20;4.72;;;0.40;;
61590;SDS011;57639;52.410;-1.966;2022-07-06T16:59:28;5.20;;;0.57;;
61590;SDS011;57639;52.410;-1.966;2022-07-06T17:02:34;2.95;;;0.52;;
61590;SDS011;57639;52.410;-1.966;2022-07-06T17:05:44;4.03;;;0.60;;
61590;SDS011;57639;52.410;-1.966;2022-07-06T17:08:54;5.25;;;0.75;;
61590;SDS011;57639;52.410;-1.966;2022-07-06T17:12:02;4.35;;;0.80;;
61590;SDS011;57639;52.410;-1.966;2022-07-06T17:15:12;3.33;;;0.70;;
61590;SDS011;57639;52.410;-1.966;2022-07-06T17:18:19;4.85;;;1.10;;
61590;SDS011;57639;52.410;-1.966;2022-07-06T17:21:31;2.00;;;0.60;;
61590;SDS011;57639;52.410;-1.966;2022-07-06T17:24:41;7.70;;;1.27;;
61590;SDS011;57639;52.410;-1.966;2022-07-06T17:27:47;3.40;;;0.60;;
61590;SDS011;57639;52.410;-1.966;2022-07-06T17:30:57;4.05;;;0.55;;
61590;SDS011;57639;52.410;-1.966;2022-07-06T17:34:03;5.97;;;0.60;;
61590;SDS011;57639;52.410;-1.966;2022-07-06T17:37:10;5.28;;;0.60;;
61590;SDS011;57639;52.410;-1.966;2022-07-06T17:40:19;5.53;;;0.70;;
61590;SDS011;57639;52.410;-1.966;2022-07-06T17:43:27;2.97;;;0.50;;
61590;SDS011;57639;52.410;-1.966;2022-07-06T17:46:48;4.40;;;0.70;;
61590;SDS011;57639;52.410;-1.966;2022-07-06T17:49:56;4.90;;;0.90;;
61590;SDS011;57639;52.410;-1.966;2022-07-06T17:53:05;7.20;;;0.70;;
61590;SDS011;57639;52.410;-1.966;2022-07-06T17:56:17;3.25;;;0.52;;
61590;SDS011;57639;52.410;-1.966;2022-07-06T17:59:23;3.33;;;0.65;;
61590;SDS011;57639;52.410;-1.966;2022-07-06T18:02:32;4.10;;;0.90;;
61590;SDS011;57639;52.410;-1.966;2022-07-06T18:05:38;8.07;;;2.65;;
61590;SDS011;57639;52.410;-1.966;2022-07-06T18:08:49;27.92;;;9.90;;
61590;SDS011;57639;52.410;-1.966;2022-07-06T18:11:58;21.92;;;8.57;;
61590;SDS011;57639;52.410;-1.966;2022-07-06T18:15:09;20.13;;;8.35;;
61590;SDS011;57639;52.410;-1.966;2022-07-06T18:18:14;29.02;;;11.18;;
61590;SDS011;57639;52.410;-1.966;2022-07-06T18:21:22;32.38;;;12.82;;
61590;SDS011;57639;52.410;-1.966;2022-07-06T18:24:28;29.92;;;13.57;;
61590;SDS011;57639;52.410;-1.966;2022-07-06T18:27:38;23.42;;;10.98;;
61590;SDS011;57639;52.410;-1.966;2022-07-06T18:30:47;21.90;;;10.27;;
61590;SDS011;57639;52.410;-1.966;2022-07-06T18:33:55;21.95;;;10.23;;
61590;SDS011;57639;52.410;-1.966;2022-07-06T18:37:01;22.17;;;9.77;;
61590;SDS011;57639;52.410;-1.966;2022-07-06T18:40:10;23.10;;;9.38;;
61590;SDS011;57639;52.410;-1.966;2022-07-06T18:43:19;25.10;;;8.98;;
61590;SDS011;57639;52.410;-1.966;2022-07-06T18:46:27;19.88;;;8.63;;